タヒチ島 の空港の天気 - METARとTAF

タヒチ・ファアア国際空港 ( NTAA / PPT ) - フランス領ポリネシア タヒチ島
飛行場実況気象(Metar)
観測時間10/17 17:30 TAHT (10/18 03:30 UTC)
風向・風速南南西 5m/s
視程10km以上
天気現象
少しの雲 雲底高度 790m
全天の4割程度の雲 雲底高度 9140m
気温28℃
湿度62%
気圧1013hPa
METARNTAA 180330Z 20009KT 9999 FEW026 SCT300 28/20 Q1013 NOSIG
過去の天気等 Google飛行場航空写真 Wunderground天気予報

過去48時間のMETAR

飛行場予報(TAF)
発表時間: 10/17 13:00 TAHT (10/17 23:00 UTC)
予報対象時間: 17日14時 TAHT ~ 18日20時 TAHT
風向・風速不定 3m/s
視程10km以上
少しの雲 雲底高度 760m
TAF NTAA 172300Z 1800/1906 VRB05KT 9999 FEW025